<?xml version="1.0" encoding="UTF-8" standalone="no" ?>
<gpx xmlns="http://www.topografix.com/GPX/1/1" xmlns:xsi="http://www.w3.org/2001/XMLSchema-instance" xsi:schemaLocation="http://www.topografix.com/GPX/1/1 http://www.topografix.com/GPX/1/1/gpx.xsd" version="1.1" creator="VisuGPX - https://www.visugpx.com">
  <metadata>
    <name>Trace Gravienne avec départ de La Mothe</name>
  </metadata>
  <trk>
    <name><![CDATA[Trace Gravienne avec départ de La Mothe_1]]></name>
    <trkseg>
      <trkpt lat="46.58181" lon="0.34532">
        <ele>119.23</ele>
        <time>2023-06-23T15:23:35.565Z</time>
      </trkpt>
      <trkpt lat="46.58181" lon="0.34532">
        <ele>119.23</ele>
        <time>2023-06-23T15:24:46.842Z</time>
      </trkpt>
      <trkpt lat="46.5816" lon="0.34577">
        <ele>119.01</ele>
        <time>2023-06-23T15:25:58.125Z</time>
      </trkpt>
      <trkpt lat="46.5816" lon="0.34577">
        <ele>122.44</ele>
        <time>2023-06-23T15:27:09.408Z</time>
      </trkpt>
      <trkpt lat="46.58153" lon="0.34592">
        <ele>122.37</ele>
        <time>2023-06-23T15:28:20.693Z</time>
      </trkpt>
      <trkpt lat="46.58146" lon="0.34607">
        <ele>122.2</ele>
        <time>2023-06-23T15:29:31.980Z</time>
      </trkpt>
      <trkpt lat="46.58133" lon="0.34636">
        <ele>121.7</ele>
        <time>2023-06-23T15:30:43.270Z</time>
      </trkpt>
      <trkpt lat="46.58131" lon="0.34643">
        <ele>121.6</ele>
        <time>2023-06-23T15:31:54.561Z</time>
      </trkpt>
      <trkpt lat="46.58131" lon="0.34643">
        <ele>118.5</ele>
        <time>2023-06-23T15:33:05.852Z</time>
      </trkpt>
      <trkpt lat="46.58127" lon="0.34654">
        <ele>118.45</ele>
        <time>2023-06-23T15:34:17.145Z</time>
      </trkpt>
      <trkpt lat="46.58119" lon="0.34676">
        <ele>117.65</ele>
        <time>2023-06-23T15:35:28.440Z</time>
      </trkpt>
      <trkpt lat="46.58115" lon="0.34687">
        <ele>117.28</ele>
        <time>2023-06-23T15:36:39.737Z</time>
      </trkpt>
      <trkpt lat="46.58113" lon="0.34692">
        <ele>117.11</ele>
        <time>2023-06-23T15:37:51.034Z</time>
      </trkpt>
      <trkpt lat="46.58111" lon="0.34698">
        <ele>116.97</ele>
        <time>2023-06-23T15:39:02.332Z</time>
      </trkpt>
      <trkpt lat="46.58108" lon="0.34707">
        <ele>116.77</ele>
        <time>2023-06-23T15:40:13.631Z</time>
      </trkpt>
      <trkpt lat="46.58107" lon="0.34709">
        <ele>116.73</ele>
        <time>2023-06-23T15:41:24.930Z</time>
      </trkpt>
      <trkpt lat="46.58102" lon="0.34719">
        <ele>116.61</ele>
        <time>2023-06-23T15:42:36.231Z</time>
      </trkpt>
      <trkpt lat="46.58099" lon="0.34724">
        <ele>116.58</ele>
        <time>2023-06-23T15:43:47.533Z</time>
      </trkpt>
      <trkpt lat="46.58093" lon="0.34734">
        <ele>116.59</ele>
        <time>2023-06-23T15:44:58.836Z</time>
      </trkpt>
      <trkpt lat="46.58088" lon="0.34744">
        <ele>116.66</ele>
        <time>2023-06-23T15:46:10.140Z</time>
      </trkpt>
      <trkpt lat="46.58082" lon="0.34755">
        <ele>116.76</ele>
        <time>2023-06-23T15:47:21.446Z</time>
      </trkpt>
      <trkpt lat="46.58071" lon="0.34775">
        <ele>117.04</ele>
        <time>2023-06-23T15:48:32.755Z</time>
      </trkpt>
      <trkpt lat="46.58068" lon="0.34781">
        <ele>117.1</ele>
        <time>2023-06-23T15:49:44.065Z</time>
      </trkpt>
      <trkpt lat="46.58067" lon="0.34786">
        <ele>117.15</ele>
        <time>2023-06-23T15:50:55.375Z</time>
      </trkpt>
      <trkpt lat="46.58064" lon="0.34797">
        <ele>117.15</ele>
        <time>2023-06-23T15:52:06.687Z</time>
      </trkpt>
      <trkpt lat="46.5806" lon="0.34812">
        <ele>117.57</ele>
        <time>2023-06-23T15:53:18.000Z</time>
      </trkpt>
      <trkpt lat="46.58057" lon="0.34823">
        <ele>117.77</ele>
        <time>2023-06-23T15:54:29.315Z</time>
      </trkpt>
      <trkpt lat="46.58057" lon="0.34824">
        <ele>117.8</ele>
        <time>2023-06-23T15:55:40.630Z</time>
      </trkpt>
      <trkpt lat="46.58048" lon="0.34848">
        <ele>118.3</ele>
        <time>2023-06-23T15:56:51.948Z</time>
      </trkpt>
      <trkpt lat="46.58048" lon="0.34848">
        <ele>118.3</ele>
        <time>2023-06-23T15:58:03.266Z</time>
      </trkpt>
      <trkpt lat="46.5806" lon="0.34855">
        <ele>118.61</ele>
        <time>2023-06-23T15:59:14.586Z</time>
      </trkpt>
      <trkpt lat="46.58069" lon="0.3486">
        <ele>118.79</ele>
        <time>2023-06-23T16:00:25.907Z</time>
      </trkpt>
      <trkpt lat="46.58073" lon="0.34862">
        <ele>118.85</ele>
        <time>2023-06-23T16:01:37.229Z</time>
      </trkpt>
      <trkpt lat="46.58079" lon="0.34866">
        <ele>118.91</ele>
        <time>2023-06-23T16:02:48.552Z</time>
      </trkpt>
      <trkpt lat="46.58081" lon="0.34868">
        <ele>118.93</ele>
        <time>2023-06-23T16:03:59.875Z</time>
      </trkpt>
      <trkpt lat="46.58084" lon="0.3487">
        <ele>118.89</ele>
        <time>2023-06-23T16:05:11.199Z</time>
      </trkpt>
      <trkpt lat="46.58094" lon="0.34878">
        <ele>118.71</ele>
        <time>2023-06-23T16:06:22.525Z</time>
      </trkpt>
      <trkpt lat="46.58098" lon="0.34882">
        <ele>118.6</ele>
        <time>2023-06-23T16:07:33.852Z</time>
      </trkpt>
      <trkpt lat="46.581" lon="0.34886">
        <ele>118.53</ele>
        <time>2023-06-23T16:08:45.179Z</time>
      </trkpt>
      <trkpt lat="46.58103" lon="0.34891">
        <ele>118.42</ele>
        <time>2023-06-23T16:09:56.507Z</time>
      </trkpt>
      <trkpt lat="46.58089" lon="0.3493">
        <ele>117.65</ele>
        <time>2023-06-23T16:11:07.840Z</time>
      </trkpt>
      <trkpt lat="46.58082" lon="0.34948">
        <ele>117.36</ele>
        <time>2023-06-23T16:12:19.175Z</time>
      </trkpt>
      <trkpt lat="46.58078" lon="0.3496">
        <ele>117.1</ele>
        <time>2023-06-23T16:13:30.511Z</time>
      </trkpt>
      <trkpt lat="46.58075" lon="0.34971">
        <ele>116.86</ele>
        <time>2023-06-23T16:14:41.849Z</time>
      </trkpt>
      <trkpt lat="46.58068" lon="0.34994">
        <ele>116.31</ele>
        <time>2023-06-23T16:15:53.190Z</time>
      </trkpt>
      <trkpt lat="46.58065" lon="0.35004">
        <ele>115.53</ele>
        <time>2023-06-23T16:17:04.532Z</time>
      </trkpt>
      <trkpt lat="46.58058" lon="0.35027">
        <ele>115.22</ele>
        <time>2023-06-23T16:18:15.877Z</time>
      </trkpt>
      <trkpt lat="46.58056" lon="0.35033">
        <ele>115.15</ele>
        <time>2023-06-23T16:19:27.222Z</time>
      </trkpt>
      <trkpt lat="46.58039" lon="0.3502">
        <ele>114.87</ele>
        <time>2023-06-23T16:20:38.570Z</time>
      </trkpt>
      <trkpt lat="46.58034" lon="0.35016">
        <ele>114.91</ele>
        <time>2023-06-23T16:21:49.919Z</time>
      </trkpt>
      <trkpt lat="46.58016" lon="0.35002">
        <ele>114.32</ele>
        <time>2023-06-23T16:23:01.272Z</time>
      </trkpt>
      <trkpt lat="46.58014" lon="0.35">
        <ele>114.26</ele>
        <time>2023-06-23T16:24:12.625Z</time>
      </trkpt>
      <trkpt lat="46.58003" lon="0.3499">
        <ele>113.89</ele>
        <time>2023-06-23T16:25:23.980Z</time>
      </trkpt>
      <trkpt lat="46.57992" lon="0.3498">
        <ele>113.59</ele>
        <time>2023-06-23T16:26:35.337Z</time>
      </trkpt>
      <trkpt lat="46.57967" lon="0.34962">
        <ele>112.95</ele>
        <time>2023-06-23T16:27:46.698Z</time>
      </trkpt>
      <trkpt lat="46.57938" lon="0.34942">
        <ele>111.66</ele>
        <time>2023-06-23T16:28:58.065Z</time>
      </trkpt>
      <trkpt lat="46.57936" lon="0.34939">
        <ele>111.55</ele>
        <time>2023-06-23T16:30:09.432Z</time>
      </trkpt>
      <trkpt lat="46.57934" lon="0.34935">
        <ele>111.41</ele>
        <time>2023-06-23T16:31:20.800Z</time>
      </trkpt>
      <trkpt lat="46.5793" lon="0.34939">
        <ele>111.22</ele>
        <time>2023-06-23T16:32:32.169Z</time>
      </trkpt>
      <trkpt lat="46.57915" lon="0.34954">
        <ele>110.6</ele>
        <time>2023-06-23T16:33:43.540Z</time>
      </trkpt>
      <trkpt lat="46.57905" lon="0.34964">
        <ele>110.09</ele>
        <time>2023-06-23T16:34:54.913Z</time>
      </trkpt>
      <trkpt lat="46.57904" lon="0.34965">
        <ele>110.09</ele>
        <time>2023-06-23T16:36:06.286Z</time>
      </trkpt>
      <trkpt lat="46.57902" lon="0.34968">
        <ele>109.94</ele>
        <time>2023-06-23T16:37:17.660Z</time>
      </trkpt>
      <trkpt lat="46.57883" lon="0.34994">
        <ele>108.14</ele>
        <time>2023-06-23T16:38:29.038Z</time>
      </trkpt>
      <trkpt lat="46.57873" lon="0.35007">
        <ele>107.2</ele>
        <time>2023-06-23T16:39:40.418Z</time>
      </trkpt>
      <trkpt lat="46.57863" lon="0.3502">
        <ele>106.34</ele>
        <time>2023-06-23T16:40:51.801Z</time>
      </trkpt>
      <trkpt lat="46.57855" lon="0.35031">
        <ele>106.23</ele>
        <time>2023-06-23T16:42:03.185Z</time>
      </trkpt>
      <trkpt lat="46.57842" lon="0.35048">
        <ele>105.03</ele>
        <time>2023-06-23T16:43:14.572Z</time>
      </trkpt>
      <trkpt lat="46.57835" lon="0.35056">
        <ele>104.41</ele>
        <time>2023-06-23T16:44:25.960Z</time>
      </trkpt>
      <trkpt lat="46.57824" lon="0.35063">
        <ele>103.58</ele>
        <time>2023-06-23T16:45:37.350Z</time>
      </trkpt>
      <trkpt lat="46.57813" lon="0.35076">
        <ele>102.59</ele>
        <time>2023-06-23T16:46:48.743Z</time>
      </trkpt>
      <trkpt lat="46.5781" lon="0.35081">
        <ele>102.26</ele>
        <time>2023-06-23T16:48:00.136Z</time>
      </trkpt>
      <trkpt lat="46.57805" lon="0.35088">
        <ele>101.81</ele>
        <time>2023-06-23T16:49:11.530Z</time>
      </trkpt>
      <trkpt lat="46.57799" lon="0.35103">
        <ele>101.02</ele>
        <time>2023-06-23T16:50:22.926Z</time>
      </trkpt>
      <trkpt lat="46.57793" lon="0.35111">
        <ele>100.51</ele>
        <time>2023-06-23T16:51:34.324Z</time>
      </trkpt>
      <trkpt lat="46.57778" lon="0.35133">
        <ele>99.02</ele>
        <time>2023-06-23T16:52:45.725Z</time>
      </trkpt>
      <trkpt lat="46.57771" lon="0.35142">
        <ele>98.46</ele>
        <time>2023-06-23T16:53:57.128Z</time>
      </trkpt>
      <trkpt lat="46.57765" lon="0.35151">
        <ele>97.93</ele>
        <time>2023-06-23T16:55:08.532Z</time>
      </trkpt>
      <trkpt lat="46.57752" lon="0.35169">
        <ele>96.95</ele>
        <time>2023-06-23T16:56:19.939Z</time>
      </trkpt>
      <trkpt lat="46.57746" lon="0.35178">
        <ele>96.62</ele>
        <time>2023-06-23T16:57:31.347Z</time>
      </trkpt>
      <trkpt lat="46.57741" lon="0.35184">
        <ele>96.41</ele>
        <time>2023-06-23T16:58:42.756Z</time>
      </trkpt>
      <trkpt lat="46.57739" lon="0.35187">
        <ele>96.33</ele>
        <time>2023-06-23T16:59:54.166Z</time>
      </trkpt>
      <trkpt lat="46.57736" lon="0.35191">
        <ele>96.2</ele>
        <time>2023-06-23T17:01:05.576Z</time>
      </trkpt>
      <trkpt lat="46.57729" lon="0.352">
        <ele>96</ele>
        <time>2023-06-23T17:02:16.988Z</time>
      </trkpt>
      <trkpt lat="46.57727" lon="0.35202">
        <ele>95.8</ele>
        <time>2023-06-23T17:03:28.400Z</time>
      </trkpt>
      <trkpt lat="46.57715" lon="0.35218">
        <ele>94.95</ele>
        <time>2023-06-23T17:04:39.815Z</time>
      </trkpt>
      <trkpt lat="46.57704" lon="0.35233">
        <ele>94.92</ele>
        <time>2023-06-23T17:05:51.232Z</time>
      </trkpt>
      <trkpt lat="46.57691" lon="0.35251">
        <ele>94.7</ele>
        <time>2023-06-23T17:07:02.652Z</time>
      </trkpt>
      <trkpt lat="46.57688" lon="0.35254">
        <ele>94.62</ele>
        <time>2023-06-23T17:08:14.073Z</time>
      </trkpt>
      <trkpt lat="46.57679" lon="0.35266">
        <ele>94.55</ele>
        <time>2023-06-23T17:09:25.496Z</time>
      </trkpt>
      <trkpt lat="46.57668" lon="0.3528">
        <ele>94.33</ele>
        <time>2023-06-23T17:10:36.921Z</time>
      </trkpt>
      <trkpt lat="46.57664" lon="0.35286">
        <ele>94.18</ele>
        <time>2023-06-23T17:11:48.347Z</time>
      </trkpt>
      <trkpt lat="46.57654" lon="0.35299">
        <ele>93.6</ele>
        <time>2023-06-23T17:12:59.775Z</time>
      </trkpt>
      <trkpt lat="46.57638" lon="0.3532">
        <ele>92.55</ele>
        <time>2023-06-23T17:14:11.207Z</time>
      </trkpt>
      <trkpt lat="46.57629" lon="0.35333">
        <ele>91.98</ele>
        <time>2023-06-23T17:15:22.641Z</time>
      </trkpt>
      <trkpt lat="46.57613" lon="0.35354">
        <ele>91.32</ele>
        <time>2023-06-23T17:16:34.078Z</time>
      </trkpt>
      <trkpt lat="46.57606" lon="0.35362">
        <ele>91.08</ele>
        <time>2023-06-23T17:17:45.516Z</time>
      </trkpt>
      <trkpt lat="46.57594" lon="0.35379">
        <ele>90.66</ele>
        <time>2023-06-23T17:18:56.957Z</time>
      </trkpt>
      <trkpt lat="46.57588" lon="0.35387">
        <ele>90.48</ele>
        <time>2023-06-23T17:20:08.399Z</time>
      </trkpt>
      <trkpt lat="46.57579" lon="0.35399">
        <ele>90.11</ele>
        <time>2023-06-23T17:21:19.843Z</time>
      </trkpt>
      <trkpt lat="46.57573" lon="0.35407">
        <ele>89.89</ele>
        <time>2023-06-23T17:22:31.289Z</time>
      </trkpt>
      <trkpt lat="46.57564" lon="0.35419">
        <ele>89.65</ele>
        <time>2023-06-23T17:23:42.737Z</time>
      </trkpt>
      <trkpt lat="46.57555" lon="0.35431">
        <ele>89.48</ele>
        <time>2023-06-23T17:24:54.187Z</time>
      </trkpt>
      <trkpt lat="46.57543" lon="0.35447">
        <ele>89.62</ele>
        <time>2023-06-23T17:26:05.639Z</time>
      </trkpt>
      <trkpt lat="46.57535" lon="0.35457">
        <ele>89.67</ele>
        <time>2023-06-23T17:27:17.093Z</time>
      </trkpt>
      <trkpt lat="46.57533" lon="0.35459">
        <ele>89.69</ele>
        <time>2023-06-23T17:28:28.547Z</time>
      </trkpt>
      <trkpt lat="46.57529" lon="0.35465">
        <ele>89.64</ele>
        <time>2023-06-23T17:29:40.002Z</time>
      </trkpt>
      <trkpt lat="46.57529" lon="0.35465">
        <ele>89.64</ele>
        <time>2023-06-23T17:30:51.457Z</time>
      </trkpt>
      <trkpt lat="46.57523" lon="0.35469">
        <ele>89.54</ele>
        <time>2023-06-23T17:32:02.913Z</time>
      </trkpt>
      <trkpt lat="46.57513" lon="0.35475">
        <ele>89.36</ele>
        <time>2023-06-23T17:33:14.371Z</time>
      </trkpt>
      <trkpt lat="46.57501" lon="0.35482">
        <ele>88.93</ele>
        <time>2023-06-23T17:34:25.831Z</time>
      </trkpt>
      <trkpt lat="46.57475" lon="0.35497">
        <ele>87.82</ele>
        <time>2023-06-23T17:35:37.296Z</time>
      </trkpt>
      <trkpt lat="46.57474" lon="0.35498">
        <ele>87.78</ele>
        <time>2023-06-23T17:36:48.761Z</time>
      </trkpt>
      <trkpt lat="46.57461" lon="0.35507">
        <ele>87.35</ele>
        <time>2023-06-23T17:38:00.228Z</time>
      </trkpt>
      <trkpt lat="46.57453" lon="0.35512">
        <ele>86.88</ele>
        <time>2023-06-23T17:39:11.696Z</time>
      </trkpt>
      <trkpt lat="46.57447" lon="0.35516">
        <ele>86.48</ele>
        <time>2023-06-23T17:40:23.166Z</time>
      </trkpt>
      <trkpt lat="46.57446" lon="0.35518">
        <ele>86.38</ele>
        <time>2023-06-23T17:41:34.636Z</time>
      </trkpt>
      <trkpt lat="46.57432" lon="0.35532">
        <ele>85.31</ele>
        <time>2023-06-23T17:42:46.109Z</time>
      </trkpt>
      <trkpt lat="46.57429" lon="0.35537">
        <ele>85.03</ele>
        <time>2023-06-23T17:43:57.582Z</time>
      </trkpt>
      <trkpt lat="46.5742" lon="0.35551">
        <ele>84.27</ele>
        <time>2023-06-23T17:45:09.057Z</time>
      </trkpt>
      <trkpt lat="46.5742" lon="0.35551">
        <ele>84.27</ele>
        <time>2023-06-23T17:46:20.532Z</time>
      </trkpt>
      <trkpt lat="46.57406" lon="0.35581">
        <ele>82.69</ele>
        <time>2023-06-23T17:47:32.011Z</time>
      </trkpt>
      <trkpt lat="46.57401" lon="0.35591">
        <ele>82.22</ele>
        <time>2023-06-23T17:48:43.492Z</time>
      </trkpt>
      <trkpt lat="46.57396" lon="0.35601">
        <ele>81.79</ele>
        <time>2023-06-23T17:49:54.974Z</time>
      </trkpt>
      <trkpt lat="46.57389" lon="0.35617">
        <ele>81.39</ele>
        <time>2023-06-23T17:51:06.458Z</time>
      </trkpt>
      <trkpt lat="46.57377" lon="0.35642">
        <ele>80.58</ele>
        <time>2023-06-23T17:52:17.945Z</time>
      </trkpt>
      <trkpt lat="46.57374" lon="0.35649">
        <ele>80.16</ele>
        <time>2023-06-23T17:53:29.433Z</time>
      </trkpt>
      <trkpt lat="46.57369" lon="0.35659">
        <ele>79.87</ele>
        <time>2023-06-23T17:54:40.923Z</time>
      </trkpt>
      <trkpt lat="46.57363" lon="0.35673">
        <ele>80.01</ele>
        <time>2023-06-23T17:55:52.415Z</time>
      </trkpt>
      <trkpt lat="46.57356" lon="0.35687">
        <ele>80.2</ele>
        <time>2023-06-23T17:57:03.908Z</time>
      </trkpt>
      <trkpt lat="46.57349" lon="0.35703">
        <ele>80.38</ele>
        <time>2023-06-23T17:58:15.404Z</time>
      </trkpt>
      <trkpt lat="46.57341" lon="0.35719">
        <ele>80.51</ele>
        <time>2023-06-23T17:59:26.902Z</time>
      </trkpt>
      <trkpt lat="46.57336" lon="0.3573">
        <ele>80.53</ele>
        <time>2023-06-23T18:00:38.401Z</time>
      </trkpt>
      <trkpt lat="46.57331" lon="0.35741">
        <ele>80.51</ele>
        <time>2023-06-23T18:01:49.902Z</time>
      </trkpt>
      <trkpt lat="46.57326" lon="0.35751">
        <ele>80.46</ele>
        <time>2023-06-23T18:03:01.404Z</time>
      </trkpt>
      <trkpt lat="46.57311" lon="0.35784">
        <ele>80.2</ele>
        <time>2023-06-23T18:04:12.910Z</time>
      </trkpt>
      <trkpt lat="46.57309" lon="0.35787">
        <ele>80.09</ele>
        <time>2023-06-23T18:05:24.417Z</time>
      </trkpt>
      <trkpt lat="46.57306" lon="0.35794">
        <ele>80.07</ele>
        <time>2023-06-23T18:06:35.925Z</time>
      </trkpt>
      <trkpt lat="46.57288" lon="0.35831">
        <ele>79.81</ele>
        <time>2023-06-23T18:07:47.438Z</time>
      </trkpt>
      <trkpt lat="46.57283" lon="0.35842">
        <ele>79.72</ele>
        <time>2023-06-23T18:08:58.952Z</time>
      </trkpt>
      <trkpt lat="46.57266" lon="0.35879">
        <ele>79.52</ele>
        <time>2023-06-23T18:10:10.471Z</time>
      </trkpt>
      <trkpt lat="46.57263" lon="0.35885">
        <ele>79.49</ele>
        <time>2023-06-23T18:11:21.991Z</time>
      </trkpt>
      <trkpt lat="46.57256" lon="0.35883">
        <ele>79.47</ele>
        <time>2023-06-23T18:12:33.512Z</time>
      </trkpt>
      <trkpt lat="46.57255" lon="0.35884">
        <ele>79.47</ele>
        <time>2023-06-23T18:13:45.033Z</time>
      </trkpt>
      <trkpt lat="46.57251" lon="0.3589">
        <ele>79.46</ele>
        <time>2023-06-23T18:14:56.555Z</time>
      </trkpt>
      <trkpt lat="46.57222" lon="0.35884">
        <ele>79.45</ele>
        <time>2023-06-23T18:16:08.082Z</time>
      </trkpt>
      <trkpt lat="46.57205" lon="0.3588">
        <ele>79.55</ele>
        <time>2023-06-23T18:17:19.612Z</time>
      </trkpt>
      <trkpt lat="46.57201" lon="0.35879">
        <ele>79.58</ele>
        <time>2023-06-23T18:18:31.142Z</time>
      </trkpt>
      <trkpt lat="46.57188" lon="0.35875">
        <ele>79.71</ele>
        <time>2023-06-23T18:19:42.674Z</time>
      </trkpt>
      <trkpt lat="46.57176" lon="0.35872">
        <ele>79.91</ele>
        <time>2023-06-23T18:20:54.208Z</time>
      </trkpt>
      <trkpt lat="46.57163" lon="0.35868">
        <ele>80.41</ele>
        <time>2023-06-23T18:22:05.745Z</time>
      </trkpt>
      <trkpt lat="46.57154" lon="0.35865">
        <ele>80.77</ele>
        <time>2023-06-23T18:23:17.283Z</time>
      </trkpt>
      <trkpt lat="46.57145" lon="0.35863">
        <ele>81.16</ele>
        <time>2023-06-23T18:24:28.822Z</time>
      </trkpt>
      <trkpt lat="46.57123" lon="0.35857">
        <ele>82.21</ele>
        <time>2023-06-23T18:25:40.365Z</time>
      </trkpt>
      <trkpt lat="46.57114" lon="0.35854">
        <ele>82.71</ele>
        <time>2023-06-23T18:26:51.909Z</time>
      </trkpt>
      <trkpt lat="46.57106" lon="0.35852">
        <ele>83.27</ele>
        <time>2023-06-23T18:28:03.455Z</time>
      </trkpt>
      <trkpt lat="46.57075" lon="0.35843">
        <ele>84.49</ele>
        <time>2023-06-23T18:29:15.006Z</time>
      </trkpt>
      <trkpt lat="46.57066" lon="0.3584">
        <ele>84.99</ele>
        <time>2023-06-23T18:30:26.558Z</time>
      </trkpt>
      <trkpt lat="46.57035" lon="0.35831">
        <ele>86.89</ele>
        <time>2023-06-23T18:31:38.115Z</time>
      </trkpt>
      <trkpt lat="46.57022" lon="0.35828">
        <ele>87.66</ele>
        <time>2023-06-23T18:32:49.675Z</time>
      </trkpt>
      <trkpt lat="46.57004" lon="0.35823">
        <ele>88.63</ele>
        <time>2023-06-23T18:34:01.237Z</time>
      </trkpt>
      <trkpt lat="46.56991" lon="0.35819">
        <ele>89.26</ele>
        <time>2023-06-23T18:35:12.802Z</time>
      </trkpt>
      <trkpt lat="46.56978" lon="0.35815">
        <ele>89.82</ele>
        <time>2023-06-23T18:36:24.369Z</time>
      </trkpt>
      <trkpt lat="46.56965" lon="0.35811">
        <ele>90.29</ele>
        <time>2023-06-23T18:37:35.938Z</time>
      </trkpt>
      <trkpt lat="46.56956" lon="0.35809">
        <ele>90.55</ele>
        <time>2023-06-23T18:38:47.508Z</time>
      </trkpt>
      <trkpt lat="46.56934" lon="0.35802">
        <ele>91.13</ele>
        <time>2023-06-23T18:39:59.082Z</time>
      </trkpt>
      <trkpt lat="46.56916" lon="0.35797">
        <ele>91.65</ele>
        <time>2023-06-23T18:41:10.659Z</time>
      </trkpt>
      <trkpt lat="46.56895" lon="0.35791">
        <ele>91.98</ele>
        <time>2023-06-23T18:42:22.239Z</time>
      </trkpt>
      <trkpt lat="46.56878" lon="0.35786">
        <ele>92.58</ele>
        <time>2023-06-23T18:43:33.822Z</time>
      </trkpt>
      <trkpt lat="46.56869" lon="0.35784">
        <ele>92.9</ele>
        <time>2023-06-23T18:44:45.406Z</time>
      </trkpt>
      <trkpt lat="46.56856" lon="0.3578">
        <ele>93.46</ele>
        <time>2023-06-23T18:45:56.993Z</time>
      </trkpt>
      <trkpt lat="46.56843" lon="0.35776">
        <ele>94.09</ele>
        <time>2023-06-23T18:47:08.582Z</time>
      </trkpt>
      <trkpt lat="46.56813" lon="0.35768">
        <ele>95.65</ele>
        <time>2023-06-23T18:48:20.176Z</time>
      </trkpt>
      <trkpt lat="46.568" lon="0.35764">
        <ele>96.35</ele>
        <time>2023-06-23T18:49:31.772Z</time>
      </trkpt>
      <trkpt lat="46.56787" lon="0.3576">
        <ele>97.08</ele>
        <time>2023-06-23T18:50:43.370Z</time>
      </trkpt>
      <trkpt lat="46.56761" lon="0.35753">
        <ele>98.61</ele>
        <time>2023-06-23T18:51:54.972Z</time>
      </trkpt>
      <trkpt lat="46.56731" lon="0.35744">
        <ele>100.26</ele>
        <time>2023-06-23T18:53:06.579Z</time>
      </trkpt>
      <trkpt lat="46.56718" lon="0.3574">
        <ele>101.06</ele>
        <time>2023-06-23T18:54:18.188Z</time>
      </trkpt>
      <trkpt lat="46.56705" lon="0.35737">
        <ele>101.89</ele>
        <time>2023-06-23T18:55:29.799Z</time>
      </trkpt>
      <trkpt lat="46.56684" lon="0.35731">
        <ele>103.34</ele>
        <time>2023-06-23T18:56:41.414Z</time>
      </trkpt>
      <trkpt lat="46.56671" lon="0.35727">
        <ele>104.16</ele>
        <time>2023-06-23T18:57:53.031Z</time>
      </trkpt>
      <trkpt lat="46.56657" lon="0.35723">
        <ele>104.13</ele>
        <time>2023-06-23T18:59:04.650Z</time>
      </trkpt>
      <trkpt lat="46.56631" lon="0.35715">
        <ele>104.58</ele>
        <time>2023-06-23T19:00:16.273Z</time>
      </trkpt>
      <trkpt lat="46.56618" lon="0.35712">
        <ele>104.86</ele>
        <time>2023-06-23T19:01:27.898Z</time>
      </trkpt>
      <trkpt lat="46.56588" lon="0.35703">
        <ele>105.62</ele>
        <time>2023-06-23T19:02:39.528Z</time>
      </trkpt>
      <trkpt lat="46.56558" lon="0.35694">
        <ele>106.44</ele>
        <time>2023-06-23T19:03:51.163Z</time>
      </trkpt>
      <trkpt lat="46.56532" lon="0.35687">
        <ele>107.08</ele>
        <time>2023-06-23T19:05:02.802Z</time>
      </trkpt>
      <trkpt lat="46.56524" lon="0.35688">
        <ele>107.27</ele>
        <time>2023-06-23T19:06:14.443Z</time>
      </trkpt>
      <trkpt lat="46.56501" lon="0.35683">
        <ele>107.84</ele>
        <time>2023-06-23T19:07:26.087Z</time>
      </trkpt>
      <trkpt lat="46.56487" lon="0.35678">
        <ele>108.19</ele>
        <time>2023-06-23T19:08:37.734Z</time>
      </trkpt>
      <trkpt lat="46.56479" lon="0.35689">
        <ele>108.46</ele>
        <time>2023-06-23T19:09:49.383Z</time>
      </trkpt>
      <trkpt lat="46.56477" lon="0.35695">
        <ele>108.58</ele>
        <time>2023-06-23T19:11:01.032Z</time>
      </trkpt>
      <trkpt lat="46.5647" lon="0.35716">
        <ele>108.93</ele>
        <time>2023-06-23T19:12:12.684Z</time>
      </trkpt>
      <trkpt lat="46.56465" lon="0.35725">
        <ele>109.1</ele>
        <time>2023-06-23T19:13:24.337Z</time>
      </trkpt>
      <trkpt lat="46.56456" lon="0.35717">
        <ele>109.34</ele>
        <time>2023-06-23T19:14:35.992Z</time>
      </trkpt>
      <trkpt lat="46.5645" lon="0.35716">
        <ele>109.48</ele>
        <time>2023-06-23T19:15:47.648Z</time>
      </trkpt>
      <trkpt lat="46.56447" lon="0.35716">
        <ele>109.54</ele>
        <time>2023-06-23T19:16:59.304Z</time>
      </trkpt>
      <trkpt lat="46.56441" lon="0.35718">
        <ele>109.66</ele>
        <time>2023-06-23T19:18:10.961Z</time>
      </trkpt>
      <trkpt lat="46.56441" lon="0.35718">
        <ele>109.66</ele>
        <time>2023-06-23T19:19:22.618Z</time>
      </trkpt>
      <trkpt lat="46.56435" lon="0.35725">
        <ele>109.79</ele>
        <time>2023-06-23T19:20:34.277Z</time>
      </trkpt>
      <trkpt lat="46.56434" lon="0.35726">
        <ele>109.81</ele>
        <time>2023-06-23T19:21:45.936Z</time>
      </trkpt>
      <trkpt lat="46.5642" lon="0.35753">
        <ele>110.14</ele>
        <time>2023-06-23T19:22:57.598Z</time>
      </trkpt>
      <trkpt lat="46.56418" lon="0.35759">
        <ele>110.21</ele>
        <time>2023-06-23T19:24:09.261Z</time>
      </trkpt>
      <trkpt lat="46.56416" lon="0.3577">
        <ele>110.38</ele>
        <time>2023-06-23T19:25:20.925Z</time>
      </trkpt>
      <trkpt lat="46.56418" lon="0.35784">
        <ele>110.61</ele>
        <time>2023-06-23T19:26:32.591Z</time>
      </trkpt>
      <trkpt lat="46.56424" lon="0.35834">
        <ele>111.5</ele>
        <time>2023-06-23T19:27:44.263Z</time>
      </trkpt>
      <trkpt lat="46.56428" lon="0.35866">
        <ele>112.08</ele>
        <time>2023-06-23T19:28:55.938Z</time>
      </trkpt>
      <trkpt lat="46.56436" lon="0.35922">
        <ele>112.98</ele>
        <time>2023-06-23T19:30:07.620Z</time>
      </trkpt>
      <trkpt lat="46.5644" lon="0.35955">
        <ele>113.46</ele>
        <time>2023-06-23T19:31:19.305Z</time>
      </trkpt>
    </trkseg>
  </trk>
</gpx>